Time;durP1;ratioP1;P1;durP2;ratioP2;P2;SDS_P1;SDS_P2;PMS_P1;PMS_P2;Temp;Humidity;BMP_temperature;BMP_pressure;BME280_temperature;BME280_humidity;BME280_pressure;Samples;Min_cycle;Max_cycle;Signal;HPM_P1;HPM_P2
2022/08/01 00:01:25;;;;;;;3.30;2.80;;;;;;;;;;5089981;28;20663;-86
2022/08/01 00:03:54;;;;;;;2.77;2.57;;;;;;;;;;5087076;28;20191;-86
2022/08/01 00:06:20;;;;;;;4.30;2.83;;;;;;;;;;5072146;28;20205;-85
2022/08/01 00:08:47;;;;;;;3.07;2.80;;;;;;;;;;5072418;28;20571;-85
2022/08/01 00:11:14;;;;;;;2.70;2.50;;;;;;;;;;5076317;28;20566;-86
2022/08/01 00:13:41;;;;;;;2.57;2.37;;;;;;;;;;5072141;28;20258;-86
2022/08/01 00:16:08;;;;;;;2.50;2.40;;;;;;;;;;5054332;28;20200;-86
2022/08/01 00:18:36;;;;;;;2.80;2.57;;;;;;;;;;5073002;28;20197;-85
2022/08/01 00:21:04;;;;;;;2.53;2.20;;;;;;;;;;5071987;28;20629;-86
2022/08/01 00:23:31;;;;;;;3.57;2.37;;;;;;;;;;5072110;28;20208;-85
2022/08/01 00:25:58;;;;;;;2.93;2.40;;;;;;;;;;5072836;28;20225;-86
2022/08/01 00:28:25;;;;;;;2.37;2.27;;;;;;;;;;5074772;28;20204;-86
2022/08/01 00:30:52;;;;;;;2.83;2.33;;;;;;;;;;5057467;28;20192;-85
2022/08/01 00:33:19;;;;;;;3.10;2.90;;;;;;;;;;5073388;28;20615;-85
2022/08/01 00:35:45;;;;;;;4.70;2.67;;;;;;;;;;5074210;28;20604;-85
2022/08/01 00:38:13;;;;;;;2.07;1.97;;;;;;;;;;5074910;28;20231;-85
2022/08/01 00:40:40;;;;;;;3.70;3.10;;;;;;;;;;5091981;28;20192;-85
2022/08/01 00:43:07;;;;;;;3.23;2.93;;;;;;;;;;5092132;28;20233;-86
2022/08/01 00:45:34;;;;;;;2.87;2.57;;;;;;;;;;5092229;28;20207;-85
2022/08/01 00:48:01;;;;;;;3.33;2.20;;;;;;;;;;5080004;28;20197;-86
2022/08/01 00:50:28;;;;;;;2.20;2.10;;;;;;;;;;5085146;28;20200;-85
2022/08/01 00:52:55;;;;;;;3.60;2.50;;;;;;;;;;5092062;28;20220;-85
2022/08/01 00:55:23;;;;;;;2.37;2.20;;;;;;;;;;5092929;28;20207;-85
2022/08/01 00:57:51;;;;;;;2.40;2.20;;;;;;;;;;5071327;28;20193;-84
2022/08/01 01:00:18;;;;;;;2.37;2.17;;;;;;;;;;5070983;28;20196;-86
2022/08/01 01:02:45;;;;;;;3.17;2.47;;;;;;;;;;5087317;28;20204;-85
2022/08/01 01:05:12;;;;;;;4.03;2.60;;;;;;;;;;5076693;28;20200;-85
2022/08/01 01:07:43;;;;;;;3.50;2.30;;;;;;;;;;5074678;28;20196;-86
2022/08/01 01:10:14;;;;;;;2.40;2.20;;;;;;;;;;5084452;28;20237;-85
2022/08/01 01:12:46;;;;;;;2.27;2.17;;;;;;;;;;5080076;28;20223;-86
2022/08/01 01:15:17;;;;;;;3.03;2.10;;;;;;;;;;5071407;28;20197;-86
2022/08/01 01:17:48;;;;;;;2.23;2.03;;;;;;;;;;5071432;28;20209;-85
2022/08/01 01:20:15;;;;;;;2.10;2.00;;;;;;;;;;5079533;28;20589;-85
2022/08/01 01:22:52;;;;;;;2.50;2.30;;;;;;;;;;5082844;28;20196;-86
2022/08/01 01:25:30;;;;;;;2.40;2.20;;;;;;;;;;5090679;28;20242;-85
2022/08/01 01:28:04;;;;;;;2.70;1.90;;;;;;;;;;5083941;28;20602;-85
2022/08/01 01:30:33;;;;;;;2.20;2.00;;;;;;;;;;5070628;28;20266;-86
2022/08/01 01:33:04;;;;;;;2.00;1.90;;;;;;;;;;5070699;28;20216;-85
2022/08/01 01:35:33;;;;;;;2.07;1.93;;;;;;;;;;5071628;28;20193;-85
2022/08/01 01:38:05;;;;;;;3.17;1.83;;;;;;;;;;5071112;28;20189;-85
2022/08/01 01:40:32;;;;;;;2.63;2.00;;;;;;;;;;5072781;28;20556;-86
2022/08/01 01:42:59;;;;;;;1.80;1.70;;;;;;;;;;5071813;28;20201;-85
2022/08/01 01:45:26;;;;;;;2.70;1.97;;;;;;;;;;5084518;28;20565;-85
2022/08/01 01:47:55;;;;;;;2.13;2.03;;;;;;;;;;5081644;28;20227;-85
2022/08/01 01:50:23;;;;;;;2.37;2.17;;;;;;;;;;5070639;28;20196;-85
2022/08/01 01:52:51;;;;;;;3.27;2.37;;;;;;;;;;5070623;28;20197;-85
2022/08/01 01:55:19;;;;;;;2.20;2.10;;;;;;;;;;5082281;28;20241;-85
2022/08/01 01:57:46;;;;;;;2.27;2.10;;;;;;;;;;5071939;28;20205;-84
2022/08/01 02:00:14;;;;;;;2.10;2.00;;;;;;;;;;5069838;28;20205;-84
2022/08/01 02:02:42;;;;;;;4.60;2.20;;;;;;;;;;5082807;28;20197;-84
2022/08/01 02:05:12;;;;;;;2.10;1.90;;;;;;;;;;5073556;28;20232;-85
2022/08/01 02:07:40;;;;;;;2.57;2.37;;;;;;;;;;5071925;28;20212;-84
2022/08/01 02:10:08;;;;;;;3.93;1.93;;;;;;;;;;5082742;28;20196;-83
2022/08/01 02:12:38;;;;;;;2.43;2.27;;;;;;;;;;5085974;28;20242;-84
2022/08/01 02:15:09;;;;;;;2.20;2.00;;;;;;;;;;5090457;28;20203;-83
2022/08/01 02:17:39;;;;;;;2.87;2.50;;;;;;;;;;5070363;28;20253;-83
2022/08/01 02:20:07;;;;;;;3.60;2.43;;;;;;;;;;5090672;28;20203;-83
2022/08/01 02:22:46;;;;;;;4.27;1.97;;;;;;;;;;5072310;28;20254;-84
2022/08/01 02:25:18;;;;;;;2.50;2.17;;;;;;;;;;5070215;28;20200;-83
2022/08/01 02:27:53;;;;;;;6.03;2.20;;;;;;;;;;5079168;28;20616;-84
2022/08/01 02:30:21;;;;;;;2.50;2.30;;;;;;;;;;5092736;28;20211;-83
2022/08/01 02:32:51;;;;;;;1.83;1.73;;;;;;;;;;5078539;28;20193;-84
2022/08/01 02:35:21;;;;;;;2.77;2.50;;;;;;;;;;5073532;28;20193;-83
2022/08/01 02:37:50;;;;;;;3.73;2.27;;;;;;;;;;5080753;28;20215;-83
2022/08/01 02:40:18;;;;;;;2.13;2.00;;;;;;;;;;5075236;28;20233;-82
2022/08/01 02:42:52;;;;;;;3.30;2.93;;;;;;;;;;5074082;28;20196;-84
2022/08/01 02:45:19;;;;;;;7.47;2.33;;;;;;;;;;5077608;28;20201;-84
2022/08/01 02:47:47;;;;;;;2.40;2.20;;;;;;;;;;5093984;28;20200;-82
2022/08/01 02:50:16;;;;;;;2.33;2.17;;;;;;;;;;5093686;28;20205;-83
2022/08/01 02:52:49;;;;;;;5.83;3.13;;;;;;;;;;5084841;28;20287;-84
2022/08/01 02:55:18;;;;;;;4.03;1.87;;;;;;;;;;5075651;28;20228;-84
2022/08/01 02:57:50;;;;;;;3.00;2.20;;;;;;;;;;5097864;28;20204;-85
2022/08/01 03:00:18;;;;;;;3.30;1.90;;;;;;;;;;5057344;28;20265;-85
2022/08/01 03:02:48;;;;;;;3.40;2.23;;;;;;;;;;5081335;28;20196;-86
2022/08/01 03:05:15;;;;;;;2.67;2.47;;;;;;;;;;5081298;28;20296;-84
2022/08/01 03:07:43;;;;;;;2.20;2.10;;;;;;;;;;5073145;28;20204;-85
2022/08/01 03:10:11;;;;;;;3.87;2.10;;;;;;;;;;5076826;28;20208;-84
2022/08/01 03:12:40;;;;;;;2.67;2.30;;;;;;;;;;5094448;28;20278;-84
2022/08/01 03:15:09;;;;;;;2.47;2.27;;;;;;;;;;5060930;28;20591;-85
2022/08/01 03:17:37;;;;;;;2.13;2.03;;;;;;;;;;5054721;28;20322;-86
2022/08/01 03:20:06;;;;;;;2.30;2.10;;;;;;;;;;5073083;28;20208;-85
2022/08/01 03:22:34;;;;;;;2.40;2.20;;;;;;;;;;5055671;28;20205;-85
2022/08/01 03:25:03;;;;;;;2.37;2.17;;;;;;;;;;5083719;28;20203;-85
2022/08/01 03:27:30;;;;;;;2.07;1.97;;;;;;;;;;5085287;28;20282;-85
2022/08/01 03:29:59;;;;;;;2.10;1.90;;;;;;;;;;5037745;28;20193;-85
2022/08/01 03:32:29;;;;;;;4.00;1.90;;;;;;;;;;5055282;28;20254;-85
2022/08/01 03:34:56;;;;;;;1.97;1.87;;;;;;;;;;5054799;28;20584;-85
2022/08/01 03:37:25;;;;;;;2.00;1.90;;;;;;;;;;5062750;28;20268;-85
2022/08/01 03:39:56;;;;;;;2.47;2.27;;;;;;;;;;5083301;28;20213;-85
2022/08/01 03:42:27;;;;;;;2.07;1.97;;;;;;;;;;5085892;28;20205;-84
2022/08/01 03:44:55;;;;;;;3.07;1.97;;;;;;;;;;5090657;28;20291;-85
2022/08/01 03:47:31;;;;;;;6.03;2.23;;;;;;;;;;5076116;28;20581;-84
2022/08/01 03:49:59;;;;;;;3.13;1.93;;;;;;;;;;5069959;28;20208;-85
2022/08/01 03:52:27;;;;;;;2.70;2.30;;;;;;;;;;5074713;28;20552;-84
2022/08/01 03:54:56;;;;;;;3.20;2.17;;;;;;;;;;5065971;28;20217;-85
2022/08/01 03:57:25;;;;;;;3.97;2.57;;;;;;;;;;5064437;28;20208;-85
2022/08/01 03:59:53;;;;;;;3.57;2.50;;;;;;;;;;5072246;28;20193;-84
2022/08/01 04:02:21;;;;;;;7.17;2.30;;;;;;;;;;5086344;28;20219;-84
2022/08/01 04:04:50;;;;;;;2.23;1.73;;;;;;;;;;5058419;28;20189;-84
2022/08/01 04:07:24;;;;;;;1.97;1.87;;;;;;;;;;5056431;28;20223;-85
2022/08/01 04:09:52;;;;;;;1.80;1.70;;;;;;;;;;5074697;28;20219;-84
2022/08/01 04:12:19;;;;;;;2.43;2.23;;;;;;;;;;5082489;28;20196;-85
2022/08/01 04:14:46;;;;;;;2.23;2.13;;;;;;;;;;5064246;28;21342;-84
2022/08/01 04:17:13;;;;;;;2.30;2.10;;;;;;;;;;5074784;28;20197;-84
2022/08/01 04:19:40;;;;;;;2.53;2.33;;;;;;;;;;5057871;28;20197;-82
2022/08/01 04:22:10;;;;;;;2.70;2.17;;;;;;;;;;5070811;28;20613;-83
2022/08/01 04:24:37;;;;;;;2.10;1.87;;;;;;;;;;5073083;28;20197;-82
2022/08/01 04:27:07;;;;;;;3.17;2.00;;;;;;;;;;5069578;28;20224;-83
2022/08/01 04:29:35;;;;;;;2.40;2.20;;;;;;;;;;5072993;28;20208;-82
2022/08/01 04:32:03;;;;;;;2.67;2.20;;;;;;;;;;5079109;28;20221;-82
2022/08/01 04:34:32;;;;;;;5.20;1.90;;;;;;;;;;5072225;28;20311;-83
2022/08/01 04:37:00;;;;;;;2.87;2.17;;;;;;;;;;5071253;28;20239;-82
2022/08/01 04:39:30;;;;;;;2.23;2.03;;;;;;;;;;5090400;28;20200;-82
2022/08/01 04:41:58;;;;;;;2.10;2.00;;;;;;;;;;5089338;28;20200;-82
2022/08/01 04:44:27;;;;;;;3.27;2.80;;;;;;;;;;5093014;28;20200;-83
2022/08/01 04:46:56;;;;;;;3.50;3.10;;;;;;;;;;5079432;28;20209;-82
2022/08/01 04:49:23;;;;;;;2.50;2.30;;;;;;;;;;5071497;28;20200;-82
2022/08/01 04:51:57;;;;;;;2.33;2.10;;;;;;;;;;5070565;28;20239;-83
2022/08/01 04:54:24;;;;;;;2.93;2.23;;;;;;;;;;5080553;28;20637;-83
2022/08/01 04:56:54;;;;;;;3.67;2.67;;;;;;;;;;5079403;28;20200;-82
2022/08/01 05:02:05;;;;;;;2.40;2.20;;;;;;;;;;5070940;28;20204;-83
2022/08/01 05:04:32;;;;;;;1.93;1.83;;;;;;;;;;5071106;28;20197;-83
2022/08/01 05:06:59;;;;;;;2.83;2.00;;;;;;;;;;5071056;28;20690;-82
2022/08/01 05:09:26;;;;;;;3.40;1.97;;;;;;;;;;5071185;28;20285;-82
2022/08/01 05:11:54;;;;;;;1.90;1.80;;;;;;;;;;5071278;28;20198;-82
2022/08/01 05:14:21;;;;;;;2.17;1.50;;;;;;;;;;5070906;28;20599;-84
2022/08/01 05:16:48;;;;;;;2.47;1.47;;;;;;;;;;5070824;28;20283;-83
2022/08/01 05:19:15;;;;;;;2.00;1.80;;;;;;;;;;5071180;28;20220;-83
2022/08/01 05:21:42;;;;;;;2.13;2.03;;;;;;;;;;5070875;28;20193;-81
2022/08/01 05:24:09;;;;;;;1.87;1.77;;;;;;;;;;5071427;28;20204;-82
2022/08/01 05:26:36;;;;;;;4.80;2.03;;;;;;;;;;5071359;28;20229;-82
2022/08/01 05:29:05;;;;;;;1.87;1.70;;;;;;;;;;5070536;28;20545;-83
2022/08/01 05:31:33;;;;;;;2.03;1.93;;;;;;;;;;5070840;28;20664;-81
2022/08/01 05:34:00;;;;;;;2.10;1.90;;;;;;;;;;5071088;28;20236;-83
2022/08/01 05:36:27;;;;;;;1.97;1.87;;;;;;;;;;5070856;28;20193;-82
2022/08/01 05:38:54;;;;;;;3.70;1.80;;;;;;;;;;5070837;28;20193;-82
2022/08/01 05:41:21;;;;;;;5.37;2.33;;;;;;;;;;5079869;28;20196;-81
2022/08/01 05:43:48;;;;;;;2.83;2.63;;;;;;;;;;5070915;28;20197;-82
2022/08/01 05:46:16;;;;;;;2.47;2.20;;;;;;;;;;5071094;28;20208;-82
2022/08/01 05:48:43;;;;;;;2.40;2.23;;;;;;;;;;5070233;28;20201;-82
2022/08/01 05:51:10;;;;;;;2.83;2.60;;;;;;;;;;5071275;28;20207;-82
2022/08/01 05:53:36;;;;;;;2.90;2.70;;;;;;;;;;5070787;28;20201;-82
2022/08/01 05:56:03;;;;;;;4.13;2.60;;;;;;;;;;5069989;28;20228;-81
2022/08/01 05:58:31;;;;;;;2.33;2.13;;;;;;;;;;5070923;28;20193;-82
2022/08/01 06:00:58;;;;;;;2.30;2.00;;;;;;;;;;5069971;28;20246;-82
2022/08/01 06:03:30;;;;;;;5.17;2.10;;;;;;;;;;5071543;28;20212;-81
2022/08/01 06:05:57;;;;;;;5.77;2.20;;;;;;;;;;5074825;28;20204;-82
2022/08/01 06:08:25;;;;;;;2.97;1.73;;;;;;;;;;5074117;28;20197;-81
2022/08/01 06:10:52;;;;;;;3.93;2.50;;;;;;;;;;5074974;28;20201;-81
2022/08/01 06:13:19;;;;;;;2.43;2.23;;;;;;;;;;5091788;28;20565;-82
2022/08/01 06:15:47;;;;;;;2.97;1.87;;;;;;;;;;5082344;28;20217;-81
2022/08/01 06:18:14;;;;;;;2.13;2.00;;;;;;;;;;5074400;28;20571;-81
2022/08/01 06:20:42;;;;;;;2.00;1.90;;;;;;;;;;5073748;28;20197;-82
2022/08/01 06:23:09;;;;;;;2.00;1.90;;;;;;;;;;5074430;28;20197;-82
2022/08/01 06:25:35;;;;;;;5.47;1.83;;;;;;;;;;5073961;28;20201;-80
2022/08/01 06:28:03;;;;;;;4.40;2.33;;;;;;;;;;5076176;28;20683;-80
2022/08/01 06:30:29;;;;;;;5.20;2.60;;;;;;;;;;5095071;28;20199;-81
2022/08/01 06:32:58;;;;;;;5.63;2.30;;;;;;;;;;5077021;28;20251;-81
2022/08/01 06:35:25;;;;;;;7.67;2.37;;;;;;;;;;5073952;28;20220;-81
2022/08/01 06:37:53;;;;;;;1.90;1.53;;;;;;;;;;5074198;28;20197;-81
2022/08/01 06:40:20;;;;;;;6.83;2.40;;;;;;;;;;5073251;28;20200;-81
2022/08/01 06:42:47;;;;;;;2.23;1.90;;;;;;;;;;5079034;28;20203;-81
2022/08/01 06:45:15;;;;;;;3.60;2.10;;;;;;;;;;5077200;28;20193;-82
2022/08/01 06:47:42;;;;;;;4.07;2.10;;;;;;;;;;5073625;28;20225;-80
2022/08/01 06:50:11;;;;;;;2.63;2.03;;;;;;;;;;5088409;28;20196;-81
2022/08/01 06:52:38;;;;;;;2.03;1.93;;;;;;;;;;5084896;28;20201;-81
2022/08/01 06:55:07;;;;;;;3.73;2.00;;;;;;;;;;5073559;28;20721;-81
2022/08/01 06:57:34;;;;;;;3.87;2.00;;;;;;;;;;5089871;28;20568;-80
2022/08/01 07:00:03;;;;;;;3.87;2.20;;;;;;;;;;5074788;28;20201;-80
2022/08/01 07:02:30;;;;;;;2.43;2.00;;;;;;;;;;5073817;28;20562;-80
2022/08/01 07:05:00;;;;;;;2.90;2.00;;;;;;;;;;5073553;28;20211;-81
2022/08/01 07:07:26;;;;;;;3.20;2.10;;;;;;;;;;5073613;28;20231;-80
2022/08/01 07:09:53;;;;;;;2.63;2.23;;;;;;;;;;5082102;28;20603;-80
2022/08/01 07:12:21;;;;;;;1.87;1.77;;;;;;;;;;5073289;28;20213;-80
2022/08/01 07:14:48;;;;;;;4.00;2.20;;;;;;;;;;5072802;28;20224;-82
2022/08/01 07:17:15;;;;;;;2.97;2.23;;;;;;;;;;5073277;28;20193;-81
2022/08/01 07:19:42;;;;;;;4.33;2.30;;;;;;;;;;5073309;28;20613;-80
2022/08/01 07:22:09;;;;;;;9.77;8.30;;;;;;;;;;5079349;28;20196;-80
2022/08/01 07:24:35;;;;;;;3.20;3.00;;;;;;;;;;5075870;28;20200;-81
2022/08/01 07:27:02;;;;;;;2.90;2.60;;;;;;;;;;5073021;28;20221;-80
2022/08/01 07:29:30;;;;;;;3.40;1.73;;;;;;;;;;5079179;28;20662;-80
2022/08/01 07:31:58;;;;;;;9.07;2.47;;;;;;;;;;5073406;28;20204;-81
2022/08/01 07:34:25;;;;;;;1.93;1.73;;;;;;;;;;5072481;28;20201;-81
2022/08/01 07:36:53;;;;;;;16.83;2.83;;;;;;;;;;5072728;28;20573;-81
2022/08/01 07:39:20;;;;;;;1.87;1.77;;;;;;;;;;5081143;28;20201;-79
2022/08/01 07:41:47;;;;;;;3.03;2.00;;;;;;;;;;5072700;28;20201;-82
2022/08/01 07:44:14;;;;;;;5.73;2.33;;;;;;;;;;5081193;28;20221;-81
2022/08/01 07:46:42;;;;;;;5.47;2.33;;;;;;;;;;5080261;28;20201;-81
2022/08/01 07:49:09;;;;;;;2.20;1.87;;;;;;;;;;5072693;28;20193;-81
2022/08/01 07:51:37;;;;;;;2.70;1.70;;;;;;;;;;5072012;28;20690;-81
2022/08/01 07:54:04;;;;;;;8.87;2.80;;;;;;;;;;5072816;28;20197;-82
2022/08/01 07:56:31;;;;;;;5.67;2.30;;;;;;;;;;5072294;28;20707;-81
2022/08/01 07:58:58;;;;;;;7.20;2.00;;;;;;;;;;5072893;28;20564;-80
2022/08/01 08:01:24;;;;;;;2.97;1.77;;;;;;;;;;5071909;28;20580;-81
2022/08/01 08:03:53;;;;;;;2.60;2.00;;;;;;;;;;5071980;28;20201;-81
2022/08/01 08:06:20;;;;;;;3.97;1.83;;;;;;;;;;5072239;28;20201;-79
2022/08/01 08:08:46;;;;;;;3.47;2.27;;;;;;;;;;5072704;28;20247;-80
2022/08/01 08:11:13;;;;;;;2.60;2.07;;;;;;;;;;5071644;28;20197;-81
2022/08/01 08:13:40;;;;;;;2.90;1.90;;;;;;;;;;5072289;28;20204;-80
2022/08/01 08:16:07;;;;;;;1.93;1.83;;;;;;;;;;5071877;28;20224;-81
2022/08/01 08:18:34;;;;;;;1.80;1.70;;;;;;;;;;5072090;28;20209;-79
2022/08/01 08:21:02;;;;;;;2.30;2.10;;;;;;;;;;5072201;28;20251;-81
2022/08/01 08:26:13;;;;;;;2.93;2.00;;;;;;;;;;5071633;28;20251;-81
2022/08/01 08:28:39;;;;;;;7.37;2.13;;;;;;;;;;5070798;28;20224;-80
2022/08/01 08:31:06;;;;;;;5.20;2.03;;;;;;;;;;5084738;28;20200;-81
2022/08/01 08:33:33;;;;;;;2.07;1.67;;;;;;;;;;5076529;28;20288;-82
2022/08/01 08:36:00;;;;;;;3.47;2.53;;;;;;;;;;5071538;28;20260;-82
2022/08/01 08:38:28;;;;;;;2.20;2.00;;;;;;;;;;5071830;28;20197;-81
2022/08/01 08:40:55;;;;;;;4.87;2.10;;;;;;;;;;5071562;28;20212;-81
2022/08/01 08:43:24;;;;;;;4.57;2.20;;;;;;;;;;5071232;28;20202;-81
2022/08/01 08:45:51;;;;;;;3.00;1.83;;;;;;;;;;5072494;28;20212;-81
2022/08/01 08:48:18;;;;;;;3.60;2.03;;;;;;;;;;5072058;28;20266;-81
2022/08/01 08:50:47;;;;;;;8.17;2.83;;;;;;;;;;5072929;28;20201;-81
2022/08/01 08:53:14;;;;;;;8.60;2.20;;;;;;;;;;5072532;28;20197;-82
2022/08/01 08:55:43;;;;;;;2.77;2.00;;;;;;;;;;5071738;28;20220;-81
2022/08/01 08:58:12;;;;;;;4.03;1.70;;;;;;;;;;5072003;28;20201;-82
2022/08/01 09:00:39;;;;;;;2.47;2.07;;;;;;;;;;5071876;28;20744;-81
2022/08/01 09:03:06;;;;;;;3.20;1.93;;;;;;;;;;5070265;28;20197;-81
2022/08/01 09:05:33;;;;;;;2.23;2.03;;;;;;;;;;5071803;28;20205;-82
2022/08/01 09:08:00;;;;;;;2.70;2.47;;;;;;;;;;5071708;28;20280;-81
2022/08/01 09:10:27;;;;;;;6.50;2.77;;;;;;;;;;5070933;28;20566;-82
2022/08/01 09:13:05;;;;;;;4.80;2.67;;;;;;;;;;5071571;28;20192;-80
2022/08/01 09:15:43;;;;;;;2.87;2.33;;;;;;;;;;5072001;28;20217;-81
2022/08/01 09:18:10;;;;;;;2.40;2.20;;;;;;;;;;5078485;28;20248;-79
2022/08/01 09:20:37;;;;;;;2.63;2.43;;;;;;;;;;5071012;28;20197;-81
2022/08/01 09:23:04;;;;;;;2.57;2.37;;;;;;;;;;5070965;28;20193;-81
2022/08/01 09:25:33;;;;;;;2.17;2.07;;;;;;;;;;5071459;28;20201;-79
2022/08/01 09:28:06;;;;;;;1.80;1.70;;;;;;;;;;5072147;28;20216;-80
2022/08/01 09:30:39;;;;;;;2.87;2.10;;;;;;;;;;5085219;28;20266;-81
2022/08/01 09:33:07;;;;;;;2.83;2.33;;;;;;;;;;5087237;28;20596;-81
2022/08/01 09:35:37;;;;;;;5.33;2.00;;;;;;;;;;5072082;28;20221;-79
2022/08/01 09:38:14;;;;;;;1.83;1.73;;;;;;;;;;5070058;28;20624;-79
2022/08/01 09:40:48;;;;;;;3.13;2.43;;;;;;;;;;5070890;28;20235;-81
2022/08/01 09:43:17;;;;;;;2.93;1.60;;;;;;;;;;5070779;28;20685;-79
2022/08/01 09:45:44;;;;;;;2.20;1.80;;;;;;;;;;5071334;28;20205;-80
2022/08/01 09:48:11;;;;;;;1.93;1.83;;;;;;;;;;5071117;28;20234;-81
2022/08/01 09:50:42;;;;;;;2.13;1.77;;;;;;;;;;5070821;28;20200;-80
2022/08/01 09:53:10;;;;;;;1.80;1.70;;;;;;;;;;5070216;28;20662;-81
2022/08/01 09:55:37;;;;;;;2.80;2.10;;;;;;;;;;5070607;28;20225;-80
2022/08/01 09:58:04;;;;;;;2.80;1.87;;;;;;;;;;5071092;28;20201;-80
2022/08/01 10:00:33;;;;;;;1.80;1.70;;;;;;;;;;5070121;28;20220;-80
2022/08/01 10:03:00;;;;;;;1.90;1.70;;;;;;;;;;5079329;28;20193;-80
2022/08/01 10:05:35;;;;;;;2.23;1.60;;;;;;;;;;5070263;28;20193;-81
2022/08/01 10:08:05;;;;;;;2.00;1.90;;;;;;;;;;5070671;28;20207;-81
2022/08/01 10:10:32;;;;;;;4.13;1.80;;;;;;;;;;5070034;28;20201;-80
2022/08/01 10:13:00;;;;;;;1.73;1.63;;;;;;;;;;5071322;28;20205;-80
2022/08/01 10:15:28;;;;;;;3.73;1.87;;;;;;;;;;5071233;28;20201;-79
2022/08/01 10:17:58;;;;;;;2.17;2.03;;;;;;;;;;5071299;28;20671;-80
2022/08/01 10:20:28;;;;;;;1.95;1.85;;;;;;;;;;5071634;28;20288;-80
2022/08/01 10:22:55;;;;;;;2.08;1.77;;;;;;;;;;5071025;28;20198;-79
2022/08/01 10:25:22;;;;;;;3.37;1.70;;;;;;;;;;5070872;28;20201;-81
2022/08/01 10:27:51;;;;;;;4.72;2.03;;;;;;;;;;5069846;28;20224;-80
2022/08/01 10:30:18;;;;;;;2.03;1.90;;;;;;;;;;5086913;28;20200;-81
2022/08/01 10:32:46;;;;;;;3.67;2.10;;;;;;;;;;5070677;28;20617;-81
2022/08/01 10:35:17;;;;;;;2.33;1.80;;;;;;;;;;5069954;28;20197;-80
2022/08/01 10:37:45;;;;;;;4.00;1.70;;;;;;;;;;5070312;28;20288;-80
2022/08/01 10:40:13;;;;;;;3.63;1.80;;;;;;;;;;5070288;28;20200;-80
2022/08/01 10:42:40;;;;;;;3.10;1.65;;;;;;;;;;5070427;28;20204;-80
2022/08/01 10:45:10;;;;;;;2.10;2.00;;;;;;;;;;5070757;28;20204;-81
2022/08/01 10:47:41;;;;;;;3.92;3.63;;;;;;;;;;5069437;28;20204;-81
2022/08/01 10:50:24;;;;;;;6.30;5.70;;;;;;;;;;5070459;28;20228;-81
2022/08/01 10:53:10;;;;;;;3.10;2.75;;;;;;;;;;5073907;28;20254;-81
2022/08/01 10:55:47;;;;;;;1.70;1.60;;;;;;;;;;5063908;28;20660;-81
2022/08/01 10:58:14;;;;;;;1.90;1.80;;;;;;;;;;5084065;28;20609;-80
2022/08/01 11:00:41;;;;;;;3.38;2.00;;;;;;;;;;5074202;28;20193;-81
2022/08/01 11:03:08;;;;;;;1.83;1.73;;;;;;;;;;5074708;28;20644;-82
2022/08/01 11:05:36;;;;;;;1.92;1.42;;;;;;;;;;5074469;28;20283;-82
2022/08/01 11:08:06;;;;;;;5.13;2.15;;;;;;;;;;5074118;28;20672;-80
2022/08/01 11:10:38;;;;;;;2.28;2.08;;;;;;;;;;5075010;28;20197;-82
2022/08/01 11:13:08;;;;;;;2.47;1.80;;;;;;;;;;5074726;28;20197;-81
2022/08/01 11:15:35;;;;;;;1.98;1.88;;;;;;;;;;5074129;28;20698;-81
2022/08/01 11:18:03;;;;;;;1.73;1.63;;;;;;;;;;5074294;28;20205;-82
2022/08/01 11:20:32;;;;;;;2.13;2.00;;;;;;;;;;5073960;28;20204;-81
2022/08/01 11:23:29;;;;;;;2.10;1.90;;;;;;;;;;5074403;28;20205;-81
2022/08/01 11:26:16;;;;;;;1.90;1.80;;;;;;;;;;5072003;28;20671;-82
2022/08/01 11:28:47;;;;;;;4.10;2.25;;;;;;;;;;5073321;28;20196;-80
2022/08/01 11:31:31;;;;;;;2.58;2.08;;;;;;;;;;5072286;28;20284;-81
2022/08/01 11:33:59;;;;;;;2.47;2.30;;;;;;;;;;5073647;28;20203;-81
2022/08/01 11:36:29;;;;;;;3.35;2.05;;;;;;;;;;5072064;28;20217;-82
2022/08/01 11:39:17;;;;;;;4.90;2.13;;;;;;;;;;5073665;28;20731;-80
2022/08/01 11:41:45;;;;;;;3.45;2.05;;;;;;;;;;5086750;28;20549;-81
2022/08/01 11:44:14;;;;;;;2.22;2.03;;;;;;;;;;5093431;28;20197;-82
2022/08/01 11:47:02;;;;;;;1.85;1.75;;;;;;;;;;5080138;28;20619;-81
2022/08/01 11:49:35;;;;;;;1.98;1.88;;;;;;;;;;5072900;28;20193;-82
2022/08/01 11:52:05;;;;;;;3.22;2.00;;;;;;;;;;5072723;28;20201;-82
2022/08/01 11:54:35;;;;;;;2.83;2.08;;;;;;;;;;5072826;28;20219;-81
2022/08/01 11:57:04;;;;;;;4.53;2.70;;;;;;;;;;5084535;28;20252;-82
2022/08/01 11:59:38;;;;;;;4.43;2.28;;;;;;;;;;5076893;28;20201;-82
2022/08/01 12:02:05;;;;;;;2.30;2.20;;;;;;;;;;5072851;28;20216;-81
2022/08/01 12:04:53;;;;;;;2.30;1.90;;;;;;;;;;5071889;28;20193;-81
2022/08/01 12:07:21;;;;;;;3.53;2.20;;;;;;;;;;5072258;28;20229;-81
2022/08/01 12:09:49;;;;;;;4.75;2.72;;;;;;;;;;5077693;28;20678;-81
2022/08/01 12:12:18;;;;;;;4.50;2.80;;;;;;;;;;5082880;28;20201;-81
2022/08/01 12:14:46;;;;;;;3.42;2.00;;;;;;;;;;5071905;28;20220;-82
2022/08/01 12:17:12;;;;;;;2.00;1.90;;;;;;;;;;5072034;28;20224;-82
2022/08/01 12:19:40;;;;;;;2.05;1.92;;;;;;;;;;5072174;28;20288;-81
2022/08/01 12:22:12;;;;;;;2.47;1.77;;;;;;;;;;5084499;28;20192;-82
2022/08/01 12:24:41;;;;;;;1.83;1.73;;;;;;;;;;5074856;28;20225;-81
2022/08/01 12:27:10;;;;;;;2.63;1.73;;;;;;;;;;5071665;28;20232;-81
2022/08/01 12:29:39;;;;;;;2.00;1.90;;;;;;;;;;5071720;28;20247;-81
2022/08/01 12:32:22;;;;;;;2.00;1.90;;;;;;;;;;5071822;28;20193;-81
2022/08/01 12:34:48;;;;;;;2.75;1.70;;;;;;;;;;5072111;28;20228;-81
2022/08/01 12:37:15;;;;;;;1.75;1.48;;;;;;;;;;5071639;28;20221;-82
2022/08/01 12:39:42;;;;;;;2.22;1.70;;;;;;;;;;5071542;28;20702;-82
2022/08/01 12:42:11;;;;;;;1.45;1.35;;;;;;;;;;5071583;28;20598;-81
2022/08/01 12:44:38;;;;;;;1.80;1.67;;;;;;;;;;5071768;28;20255;-82
2022/08/01 12:47:06;;;;;;;2.08;1.73;;;;;;;;;;5071342;28;20201;-81
2022/08/01 12:49:33;;;;;;;2.10;1.88;;;;;;;;;;5071098;28;20204;-81
2022/08/01 12:52:00;;;;;;;6.68;1.85;;;;;;;;;;5071925;28;20212;-81
2022/08/01 12:54:27;;;;;;;1.50;1.40;;;;;;;;;;5071218;28;20201;-81
2022/08/01 12:56:54;;;;;;;5.25;1.80;;;;;;;;;;5082082;28;20218;-82
2022/08/01 12:59:24;;;;;;;1.70;1.60;;;;;;;;;;5076257;28;20201;-82
2022/08/01 13:01:52;;;;;;;1.80;1.70;;;;;;;;;;5071288;28;20197;-82
2022/08/01 13:04:19;;;;;;;2.10;1.67;;;;;;;;;;5071201;28;20577;-82
2022/08/01 13:06:46;;;;;;;3.10;1.85;;;;;;;;;;5070806;28;20674;-81
2022/08/01 13:09:13;;;;;;;4.68;1.70;;;;;;;;;;5071299;28;20228;-82
2022/08/01 13:11:40;;;;;;;1.65;1.55;;;;;;;;;;5071170;28;20229;-83
2022/08/01 13:14:08;;;;;;;1.70;1.60;;;;;;;;;;5079007;28;20279;-81
2022/08/01 13:16:47;;;;;;;2.60;1.60;;;;;;;;;;5071139;28;20224;-81
2022/08/01 13:19:14;;;;;;;1.38;1.27;;;;;;;;;;5079818;28;20620;-82
2022/08/01 13:21:55;;;;;;;1.67;1.58;;;;;;;;;;5071442;28;20200;-81
2022/08/01 13:24:26;;;;;;;5.22;2.05;;;;;;;;;;5070815;28;20291;-83
2022/08/01 13:26:58;;;;;;;3.17;1.55;;;;;;;;;;5071633;28;20225;-80
2022/08/01 13:29:31;;;;;;;3.05;1.63;;;;;;;;;;5071470;28;20284;-81
2022/08/01 13:31:59;;;;;;;2.85;1.50;;;;;;;;;;5071592;28;20206;-83
2022/08/01 13:34:32;;;;;;;1.60;1.50;;;;;;;;;;5077533;28;20672;-81
2022/08/01 13:37:01;;;;;;;1.75;1.40;;;;;;;;;;5071695;28;20235;-82
2022/08/01 13:39:44;;;;;;;2.03;1.60;;;;;;;;;;5070877;28;20278;-82
2022/08/01 13:42:12;;;;;;;4.18;1.30;;;;;;;;;;5070553;28;20258;-83
2022/08/01 13:44:39;;;;;;;2.95;1.75;;;;;;;;;;5070893;28;20208;-81
2022/08/01 13:47:07;;;;;;;1.60;1.50;;;;;;;;;;5070282;28;20255;-82
2022/08/01 13:49:34;;;;;;;1.98;1.50;;;;;;;;;;5070633;28;20197;-82
2022/08/01 13:52:02;;;;;;;1.60;1.50;;;;;;;;;;5070662;28;20201;-81
2022/08/01 13:54:29;;;;;;;1.60;1.40;;;;;;;;;;5070293;28;20204;-81
2022/08/01 13:56:56;;;;;;;1.45;1.35;;;;;;;;;;5075645;28;20212;-82
2022/08/01 13:59:23;;;;;;;1.77;1.67;;;;;;;;;;5074547;28;20201;-85
2022/08/01 14:01:50;;;;;;;1.50;1.40;;;;;;;;;;5070407;28;20207;-81
2022/08/01 14:04:18;;;;;;;1.70;1.05;;;;;;;;;;5070822;28;20781;-81
2022/08/01 14:06:45;;;;;;;1.35;1.25;;;;;;;;;;5079876;28;20204;-81
2022/08/01 14:09:12;;;;;;;1.60;1.50;;;;;;;;;;5091847;28;20207;-82
2022/08/01 14:11:39;;;;;;;1.83;1.10;;;;;;;;;;5090658;28;20192;-82
2022/08/01 14:14:06;;;;;;;1.95;1.10;;;;;;;;;;5092049;28;20290;-83
2022/08/01 14:16:33;;;;;;;3.42;1.40;;;;;;;;;;5077744;28;20212;-82
2022/08/01 14:18:59;;;;;;;1.33;1.23;;;;;;;;;;5077190;28;20254;-82
2022/08/01 14:21:28;;;;;;;1.63;1.20;;;;;;;;;;5079661;28;20712;-82
2022/08/01 14:23:54;;;;;;;3.72;1.38;;;;;;;;;;5070282;28;20201;-82
2022/08/01 14:26:21;;;;;;;3.47;1.48;;;;;;;;;;5074305;28;20228;-83
2022/08/01 14:28:52;;;;;;;1.42;1.40;;;;;;;;;;5073639;28;20193;-81
2022/08/01 14:31:18;;;;;;;1.38;1.30;;;;;;;;;;5074295;28;20205;-81
2022/08/01 14:33:45;;;;;;;3.78;1.60;;;;;;;;;;5074849;28;20201;-81
2022/08/01 14:36:12;;;;;;;2.67;1.40;;;;;;;;;;5075215;28;20209;-80
2022/08/01 14:38:41;;;;;;;1.70;1.10;;;;;;;;;;5082632;28;20226;-90
2022/08/01 14:41:08;;;;;;;1.55;1.40;;;;;;;;;;5082751;28;20205;-87
2022/08/01 14:43:36;;;;;;;2.05;1.25;;;;;;;;;;5075095;28;20201;-88
2022/08/01 14:46:03;;;;;;;1.15;1.10;;;;;;;;;;5080529;28;20189;-88
2022/08/01 14:48:30;;;;;;;1.20;1.10;;;;;;;;;;5084486;28;20192;-87
2022/08/01 14:50:57;;;;;;;1.10;1.10;;;;;;;;;;5073574;28;20189;-87
2022/08/01 14:53:24;;;;;;;1.50;1.40;;;;;;;;;;5092454;28;20199;-87
2022/08/01 14:55:52;;;;;;;1.48;1.38;;;;;;;;;;5075656;28;20200;-86
2022/08/01 14:58:19;;;;;;;2.45;1.35;;;;;;;;;;5079735;28;20574;-89